createdAt,value
2017-11-16T00:01:26.537Z,85.91
2017-11-16T00:04:08.934Z,85.57
2017-11-16T00:12:24.151Z,85.19
2017-11-16T00:14:55.530Z,85.27
2017-11-16T00:17:27.199Z,85.24
2017-11-16T00:19:59.740Z,85.22
2017-11-16T00:22:36.805Z,85.17
2017-11-16T00:25:08.590Z,85.29
2017-11-16T00:27:39.996Z,85.53
2017-11-16T00:30:14.577Z,85.75
2017-11-16T00:32:50.552Z,86.06
2017-11-16T00:35:23.357Z,86.36
2017-11-16T00:37:55.568Z,86.43
2017-11-16T00:40:29.314Z,86.48
2017-11-16T00:43:04.322Z,86.84
2017-11-16T00:45:37.945Z,86.97
2017-11-16T00:48:15.839Z,86.92
2017-11-16T00:50:47.241Z,86.85
2017-11-16T00:53:21.300Z,86.80
2017-11-16T00:55:52.948Z,86.73
2017-11-16T00:58:25.860Z,86.72
2017-11-16T01:00:57.589Z,86.73
2017-11-16T01:03:30.426Z,86.70
2017-11-16T01:06:04.169Z,86.69
2017-11-16T01:08:35.846Z,86.92
2017-11-16T01:11:09.365Z,87.05
2017-11-16T01:13:41.449Z,87.04
2017-11-16T01:16:15.416Z,86.95
2017-11-16T01:18:46.933Z,87.08
2017-11-16T01:21:19.232Z,87.12
2017-11-16T01:23:51.059Z,87.11
2017-11-16T01:26:22.793Z,87.16
2017-11-16T01:28:54.605Z,87.10
2017-11-16T01:31:26.067Z,87.01
2017-11-16T01:33:58.218Z,86.88
2017-11-16T01:36:30.212Z,86.63
2017-11-16T01:39:03.439Z,86.53
2017-11-16T01:41:35.075Z,86.37
2017-11-16T01:44:07.497Z,86.56
2017-11-16T01:46:38.859Z,86.58
2017-11-16T01:49:10.369Z,86.45
2017-11-16T01:51:41.667Z,86.41
2017-11-16T01:54:13.380Z,86.24
2017-11-16T01:56:44.687Z,86.03
2017-11-16T01:59:16.062Z,85.91
2017-11-16T02:01:47.389Z,85.79
2017-11-16T02:04:19.768Z,85.80
2017-11-16T02:06:51.389Z,85.86
2017-11-16T02:09:26.219Z,85.82
2017-11-16T02:11:57.837Z,85.83
2017-11-16T02:14:30.485Z,85.68
2017-11-16T02:17:02.956Z,85.46
2017-11-16T02:19:34.520Z,85.31
2017-11-16T02:22:09.604Z,85.24
2017-11-16T02:24:41.802Z,85.15
2017-11-16T02:27:13.244Z,85.04
2017-11-16T02:29:46.389Z,85.14
2017-11-16T02:32:20.507Z,85.15
2017-11-16T02:34:52.181Z,85.09
2017-11-16T02:37:24.511Z,85.08
2017-11-16T02:39:55.873Z,84.93
2017-11-16T02:42:27.699Z,84.75
2017-11-16T02:44:59.361Z,84.66
2017-11-16T02:47:30.759Z,84.44
2017-11-16T02:50:06.543Z,84.13
2017-11-16T02:52:37.989Z,83.86
2017-11-16T02:55:09.352Z,83.54
2017-11-16T02:57:42.142Z,83.18
2017-11-16T03:00:13.799Z,82.91
2017-11-16T03:02:47.356Z,82.71
2017-11-16T03:05:18.840Z,82.62
2017-11-16T03:07:50.316Z,82.39
2017-11-16T03:10:22.793Z,81.93
2017-11-16T03:12:54.160Z,81.63
2017-11-16T03:15:26.016Z,81.26
2017-11-16T03:17:57.312Z,81.06
2017-11-16T03:20:28.854Z,80.85
2017-11-16T03:23:00.956Z,80.93
2017-11-16T03:25:33.787Z,80.94
2017-11-16T03:28:08.092Z,80.96
2017-11-16T03:30:40.512Z,80.92
2017-11-16T03:33:12.125Z,81.07
2017-11-16T03:35:43.508Z,81.11
2017-11-16T03:38:14.841Z,81.00
2017-11-16T03:40:46.463Z,80.89
2017-11-16T03:43:17.814Z,80.64
2017-11-16T03:45:49.302Z,80.43
2017-11-16T03:48:21.500Z,80.11
2017-11-16T03:50:52.908Z,80.01
2017-11-16T03:53:27.144Z,80.01
2017-11-16T03:55:58.738Z,80.17
2017-11-16T03:58:30.164Z,80.15
2017-11-16T04:01:02.804Z,80.12
2017-11-16T04:03:34.407Z,80.15
2017-11-16T04:06:07.385Z,80.18
2017-11-16T04:08:39.339Z,80.24
2017-11-16T04:11:12.557Z,80.33
2017-11-16T04:13:43.911Z,80.38
2017-11-16T04:16:15.554Z,80.57
2017-11-16T04:18:47.936Z,80.47
2017-11-16T04:21:19.545Z,80.34
2017-11-16T04:23:51.322Z,80.14
2017-11-16T04:26:25.807Z,79.87
2017-11-16T04:28:58.062Z,79.81
2017-11-16T04:31:31.578Z,79.73
2017-11-16T04:34:06.755Z,79.63
2017-11-16T04:36:38.403Z,79.40
2017-11-16T04:39:10.537Z,79.39
2017-11-16T04:41:43.735Z,79.46
2017-11-16T04:44:16.622Z,79.48
2017-11-16T04:46:48.882Z,79.48
2017-11-16T04:49:22.506Z,79.36
2017-11-16T04:51:53.867Z,79.31
2017-11-16T04:54:25.801Z,79.15
2017-11-16T04:56:57.081Z,79.01
2017-11-16T04:59:28.409Z,78.88
2017-11-16T05:02:00.009Z,78.74
2017-11-16T05:04:31.338Z,78.56
2017-11-16T05:07:03.990Z,78.45
2017-11-16T05:09:35.710Z,78.32
2017-11-16T05:12:07.094Z,78.25
2017-11-16T05:14:38.425Z,78.26
2017-11-16T05:17:10.361Z,78.30
2017-11-16T05:22:47.030Z,78.46
2017-11-16T05:25:18.388Z,78.55
2017-11-16T05:27:50.150Z,78.49
2017-11-16T05:30:21.634Z,78.38
2017-11-16T05:32:53.119Z,78.29
2017-11-16T05:35:25.866Z,78.72
2017-11-16T05:37:57.556Z,78.60
2017-11-16T05:40:29.087Z,78.59
2017-11-16T05:43:00.902Z,78.70
2017-11-16T05:45:34.377Z,78.59
2017-11-16T05:48:07.405Z,78.62
2017-11-16T05:50:41.681Z,78.69
2017-11-16T05:53:14.336Z,78.67
2017-11-16T05:55:47.897Z,78.65
2017-11-16T05:58:19.984Z,78.64
2017-11-16T06:00:52.732Z,78.70
2017-11-16T06:03:25.073Z,78.81
2017-11-16T06:05:58.135Z,78.84
2017-11-16T06:08:30.645Z,78.81
2017-11-16T06:11:04.484Z,78.83
2017-11-16T06:13:36.833Z,78.75
2017-11-16T06:18:55.111Z,78.45
2017-11-16T06:21:27.916Z,78.53
2017-11-16T06:23:59.749Z,78.71
2017-11-16T06:26:31.335Z,78.98
2017-11-16T06:29:04.303Z,78.79
2017-11-16T06:31:36.006Z,78.51
2017-11-16T06:34:09.151Z,78.16
2017-11-16T06:36:42.113Z,77.66
2017-11-16T06:39:13.919Z,77.85
2017-11-16T06:41:45.685Z,78.17
2017-11-16T06:44:17.317Z,78.30
2017-11-16T06:46:55.269Z,78.39
2017-11-16T06:49:26.641Z,78.33
2017-11-16T06:51:58.326Z,78.29
2017-11-16T06:54:29.701Z,78.10
2017-11-16T06:57:02.041Z,77.79
2017-11-16T06:59:34.070Z,77.50
2017-11-16T07:02:12.008Z,77.33
2017-11-16T07:04:50.344Z,77.50
2017-11-16T07:07:22.899Z,77.41
2017-11-16T07:09:55.611Z,77.19
2017-11-16T07:12:29.822Z,77.10
2017-11-16T07:15:02.336Z,77.20
2017-11-16T07:17:34.027Z,77.15
2017-11-16T07:20:06.717Z,76.99
2017-11-16T07:22:39.204Z,76.95
2017-11-16T07:25:13.409Z,76.78
2017-11-16T07:27:46.060Z,76.78
2017-11-16T07:30:17.733Z,76.65
2017-11-16T07:32:49.330Z,76.59
2017-11-16T07:35:20.956Z,76.34
2017-11-16T07:37:52.693Z,76.25
2017-11-16T07:40:25.867Z,76.08
2017-11-16T07:42:57.577Z,76.00
2017-11-16T07:45:32.782Z,75.75
2017-11-16T07:51:09.763Z,75.11
2017-11-16T07:53:41.234Z,75.24
2017-11-16T07:56:15.293Z,75.29
2017-11-16T07:58:47.806Z,75.18
2017-11-16T08:01:19.154Z,75.18
2017-11-16T08:03:50.773Z,75.04
2017-11-16T08:06:23.634Z,74.93
2017-11-16T08:11:59.905Z,74.61
2017-11-16T08:14:36.451Z,74.71
2017-11-16T08:17:09.396Z,74.75
2017-11-16T08:19:43.254Z,75.04
2017-11-16T08:25:20.029Z,75.44
2017-11-16T08:27:52.457Z,75.25
2017-11-16T08:30:27.160Z,75.00
2017-11-16T08:33:05.290Z,74.84
2017-11-16T08:35:37.036Z,74.60
2017-11-16T08:41:09.464Z,74.19
2017-11-16T08:43:41.111Z,73.69
2017-11-16T08:46:12.858Z,73.36
2017-11-16T08:48:44.518Z,73.12
2017-11-16T08:51:18.901Z,72.89
2017-11-16T08:53:52.009Z,72.55
2017-11-16T08:56:26.923Z,72.22
2017-11-16T08:58:58.561Z,71.97
2017-11-16T09:01:31.806Z,71.77
2017-11-16T09:04:06.093Z,71.53
2017-11-16T09:06:37.886Z,71.37
2017-11-16T09:09:10.478Z,71.38
2017-11-16T09:11:43.764Z,71.22
2017-11-16T09:14:15.137Z,70.94
2017-11-16T09:16:47.363Z,70.66
2017-11-16T09:19:23.021Z,70.81
2017-11-16T09:21:54.858Z,71.15
2017-11-16T09:24:27.051Z,71.69
2017-11-16T09:26:59.614Z,71.99
2017-11-16T09:29:31.078Z,72.32
2017-11-16T09:32:03.772Z,72.45
2017-11-16T09:34:35.789Z,72.42
2017-11-16T09:37:07.481Z,72.07
2017-11-16T09:42:40.290Z,71.91
2017-11-16T09:45:12.983Z,71.80
2017-11-16T09:47:46.640Z,71.78
2017-11-16T09:50:28.003Z,71.90
2017-11-16T09:53:00.413Z,71.86
2017-11-16T09:55:32.251Z,71.81
2017-11-16T09:58:09.782Z,72.15
2017-11-16T10:00:48.696Z,72.13
2017-11-16T10:03:20.858Z,72.37
2017-11-16T10:05:55.443Z,72.80
2017-11-16T10:08:27.346Z,72.64
2017-11-16T10:10:58.974Z,72.62
2017-11-16T10:13:30.613Z,72.49
2017-11-16T10:16:04.446Z,72.50
2017-11-16T10:18:37.011Z,72.94
2017-11-16T10:21:16.087Z,73.31
2017-11-16T10:23:47.706Z,73.54
2017-11-16T10:26:24.003Z,73.47
2017-11-16T10:28:55.609Z,73.23
2017-11-16T10:31:27.428Z,73.26
2017-11-16T10:33:59.427Z,73.31
2017-11-16T10:36:32.225Z,73.19
2017-11-16T10:39:05.933Z,72.98
2017-11-16T10:41:37.655Z,72.87
2017-11-16T10:44:09.111Z,72.91
2017-11-16T10:46:40.479Z,72.86
2017-11-16T10:49:23.152Z,72.95
2017-11-16T10:51:54.617Z,72.91
2017-11-16T10:54:27.976Z,72.90
2017-11-16T10:57:00.374Z,72.96
2017-11-16T10:59:32.819Z,73.12
2017-11-16T11:02:07.900Z,72.83
2017-11-16T11:04:39.674Z,72.77
2017-11-16T11:07:11.075Z,72.45
2017-11-16T11:09:42.829Z,72.65
2017-11-16T11:12:14.483Z,72.19
2017-11-16T11:14:45.810Z,72.01
2017-11-16T11:17:17.673Z,71.82
2017-11-16T11:19:49.525Z,71.78
2017-11-16T11:22:20.860Z,71.53
2017-11-16T11:24:52.717Z,71.60
2017-11-16T11:27:24.488Z,71.59
2017-11-16T11:29:55.851Z,71.70
2017-11-16T11:32:27.429Z,71.51
2017-11-16T11:35:08.803Z,71.82
2017-11-16T11:37:40.428Z,71.58
2017-11-16T11:40:11.926Z,71.23
2017-11-16T11:42:43.736Z,70.88
2017-11-16T11:45:18.032Z,70.63
2017-11-16T11:47:49.378Z,70.51
2017-11-16T11:50:22.403Z,70.46
2017-11-16T11:52:53.775Z,70.50
2017-11-16T11:55:26.576Z,70.71
2017-11-16T11:58:00.073Z,70.85
2017-11-16T12:00:33.334Z,71.02
2017-11-16T12:03:05.400Z,71.24
2017-11-16T12:05:36.928Z,71.22
2017-11-16T12:08:09.384Z,70.90
2017-11-16T12:10:41.406Z,70.43
2017-11-16T12:13:16.436Z,70.09
2017-11-16T12:15:49.149Z,69.68
2017-11-16T12:18:21.480Z,69.77
2017-11-16T12:20:53.559Z,69.86
2017-11-16T12:23:25.455Z,70.33
2017-11-16T12:25:57.110Z,70.63
2017-11-16T12:28:28.808Z,70.61
2017-11-16T12:31:00.339Z,70.96
2017-11-16T12:33:36.641Z,70.82
2017-11-16T12:36:12.466Z,70.76
2017-11-16T12:38:48.444Z,70.73
2017-11-16T12:41:25.756Z,71.04
2017-11-16T12:43:59.789Z,71.45
2017-11-16T12:46:33.951Z,71.53
2017-11-16T12:49:08.377Z,71.75
2017-11-16T12:51:40.507Z,71.98
2017-11-16T12:54:15.295Z,72.25
2017-11-16T12:56:51.372Z,72.31
2017-11-16T12:59:22.883Z,72.70
2017-11-16T13:01:54.947Z,72.84
2017-11-16T13:04:26.411Z,72.73
2017-11-16T13:09:57.095Z,71.91
2017-11-16T13:12:30.844Z,71.63
2017-11-16T13:15:04.761Z,71.64
2017-11-16T13:17:36.869Z,72.07
2017-11-16T13:20:12.314Z,71.99
2017-11-16T13:22:46.551Z,71.89
2017-11-16T13:27:53.070Z,72.69
2017-11-16T13:30:27.177Z,72.69
2017-11-16T13:32:58.607Z,72.88
2017-11-16T13:35:31.313Z,72.96
2017-11-16T13:38:08.657Z,72.74
2017-11-16T13:40:40.835Z,72.33
2017-11-16T13:43:14.706Z,72.12
2017-11-16T13:45:47.314Z,71.81
2017-11-16T13:48:19.819Z,71.92
2017-11-16T13:50:53.964Z,71.72
2017-11-16T13:53:28.550Z,71.38
2017-11-16T13:56:03.049Z,71.35
2017-11-16T13:58:38.512Z,71.50
2017-11-16T14:01:11.602Z,71.93
2017-11-16T14:03:45.285Z,72.13
2017-11-16T14:06:19.627Z,72.12
2017-11-16T14:08:53.114Z,72.03
2017-11-16T14:11:25.260Z,71.87
2017-11-16T14:13:59.476Z,71.79
2017-11-16T14:16:31.211Z,71.41
2017-11-16T14:19:05.982Z,71.38
2017-11-16T14:21:40.321Z,71.73
2017-11-16T14:24:15.622Z,71.73
2017-11-16T14:26:48.577Z,72.02
2017-11-16T14:29:21.822Z,72.10
2017-11-16T14:31:55.633Z,72.29
2017-11-16T14:34:29.009Z,72.35
2017-11-16T14:37:04.475Z,72.25
2017-11-16T14:39:36.657Z,72.18
2017-11-16T14:42:16.344Z,71.95
2017-11-16T14:44:49.430Z,71.87
2017-11-16T14:47:20.845Z,71.89
2017-11-16T14:49:53.090Z,71.84
2017-11-16T14:52:26.051Z,71.72
2017-11-16T14:54:57.578Z,71.64
2017-11-16T14:57:29.846Z,71.78
2017-11-16T15:00:05.274Z,72.01
2017-11-16T15:02:37.239Z,72.14
2017-11-16T15:05:10.439Z,72.28
2017-11-16T15:07:42.019Z,72.58
2017-11-16T15:10:14.117Z,72.60
2017-11-16T15:12:48.123Z,72.52
2017-11-16T15:15:21.382Z,72.79
2017-11-16T15:17:53.795Z,72.83
2017-11-16T15:20:25.261Z,72.76
2017-11-16T15:22:57.256Z,72.83
2017-11-16T15:25:29.694Z,72.82
2017-11-16T15:30:45.729Z,72.94
2017-11-16T15:33:20.819Z,73.22
2017-11-16T15:36:05.346Z,73.33
2017-11-16T15:38:37.274Z,73.34
2017-11-16T15:41:12.664Z,73.58
2017-11-16T15:43:46.537Z,73.78
2017-11-16T15:46:18.264Z,73.48
2017-11-16T15:48:51.368Z,73.23
2017-11-16T15:51:22.737Z,73.17
2017-11-16T15:53:54.286Z,72.97
2017-11-16T15:56:25.730Z,72.77
2017-11-16T15:58:57.510Z,72.74
2017-11-16T16:01:32.363Z,72.55
2017-11-16T16:07:12.019Z,72.81
2017-11-16T16:09:49.684Z,72.63
2017-11-16T16:12:26.421Z,72.66
2017-11-16T16:14:58.770Z,73.01
2017-11-16T16:17:33.060Z,73.35
2017-11-16T16:20:07.962Z,73.51
2017-11-16T16:22:39.820Z,73.48
2017-11-16T16:25:11.609Z,73.21
2017-11-16T16:27:43.160Z,73.12
2017-11-16T16:30:20.745Z,73.07
2017-11-16T16:32:53.188Z,73.19
2017-11-16T16:35:26.414Z,73.11
2017-11-16T16:37:57.779Z,73.15
2017-11-16T16:40:34.714Z,73.19
2017-11-16T16:46:23.932Z,73.38
2017-11-16T16:49:07.401Z,73.36
2017-11-16T16:51:46.958Z,73.15
2017-11-16T16:57:25.990Z,72.64
2017-11-16T17:03:13.015Z,73.00
2017-11-16T17:05:46.766Z,73.00
2017-11-16T17:08:26.361Z,73.08
2017-11-16T17:10:58.821Z,72.84
2017-11-16T17:13:33.682Z,72.84
2017-11-16T17:16:11.101Z,72.95
2017-11-16T17:18:45.617Z,73.09
2017-11-16T17:21:20.430Z,73.07
2017-11-16T17:23:56.539Z,72.91
2017-11-16T17:26:33.845Z,72.83
2017-11-16T17:29:11.165Z,72.50
2017-11-16T17:31:43.561Z,72.51
2017-11-16T17:34:27.411Z,72.44
2017-11-16T17:37:05.901Z,72.06
2017-11-16T17:39:41.122Z,71.94
2017-11-16T17:42:20.859Z,71.91
2017-11-16T17:48:00.398Z,71.69
2017-11-16T17:50:39.208Z,71.45
2017-11-16T17:53:11.313Z,70.97
2017-11-16T17:55:43.992Z,70.93
2017-11-16T17:58:16.486Z,70.98
2017-11-16T18:00:48.407Z,70.68
2017-11-16T18:03:21.194Z,70.89
2017-11-16T18:05:54.472Z,71.06
2017-11-16T18:08:27.071Z,71.24
2017-11-16T18:11:03.449Z,71.32
2017-11-16T18:13:38.177Z,71.20
2017-11-16T18:16:09.743Z,70.93
2017-11-16T18:18:44.345Z,71.03
2017-11-16T18:21:17.070Z,71.40
2017-11-16T18:23:50.962Z,71.32
2017-11-16T18:26:22.507Z,71.21
2017-11-16T18:28:54.322Z,71.21
2017-11-16T18:34:35.127Z,71.42
2017-11-16T18:37:07.522Z,71.45
2017-11-16T18:39:38.947Z,71.71
2017-11-16T18:42:11.645Z,71.72
2017-11-16T18:44:51.370Z,71.55
2017-11-16T18:47:24.885Z,71.72
2017-11-16T18:52:33.981Z,71.60
2017-11-16T18:55:06.508Z,71.46
2017-11-16T18:57:40.406Z,71.16
2017-11-16T19:00:12.507Z,71.25
2017-11-16T19:05:43.060Z,71.41
2017-11-16T19:08:19.146Z,71.46
2017-11-16T19:10:56.725Z,71.31
2017-11-16T19:13:29.667Z,71.55
2017-11-16T19:16:06.262Z,71.79
2017-11-16T19:24:33.453Z,71.80
2017-11-16T19:27:11.800Z,71.78
2017-11-16T19:30:37.326Z,71.91
2017-11-16T19:33:13.070Z,72.03
2017-11-16T19:35:51.339Z,71.87
2017-11-16T19:38:25.935Z,71.90
2017-11-16T19:41:01.220Z,71.86
2017-11-16T19:43:34.523Z,71.79
2017-11-16T19:46:14.013Z,72.23
2017-11-16T19:48:49.834Z,72.31
2017-11-16T19:54:21.148Z,71.68
2017-11-16T20:00:03.401Z,71.60
2017-11-16T20:02:39.464Z,71.45
2017-11-16T20:05:14.135Z,71.42
2017-11-16T20:07:46.249Z,71.40
2017-11-16T20:10:22.493Z,71.47
2017-11-16T20:15:59.231Z,71.93
2017-11-16T20:18:31.237Z,72.06
2017-11-16T20:21:05.062Z,72.09
2017-11-16T20:23:36.447Z,72.15
2017-11-16T20:26:11.069Z,72.09
2017-11-16T20:28:44.009Z,71.99
2017-11-16T20:31:15.923Z,71.96
2017-11-16T20:33:47.762Z,71.88
2017-11-16T20:36:23.347Z,71.87
2017-11-16T20:38:57.243Z,71.88
2017-11-16T20:41:30.449Z,72.04
2017-11-16T20:44:04.539Z,72.11
2017-11-16T20:46:36.026Z,72.09
2017-11-16T20:49:12.880Z,71.96
2017-11-16T20:51:52.280Z,71.99
2017-11-16T20:54:24.892Z,72.43
2017-11-16T20:56:57.481Z,72.31
2017-11-16T20:59:30.579Z,72.61
2017-11-16T21:05:16.224Z,72.74
2017-11-16T21:11:03.882Z,73.11
2017-11-16T21:16:29.169Z,73.12
2017-11-16T21:19:11.226Z,72.92
2017-11-16T21:22:05.693Z,72.91
2017-11-16T21:24:39.955Z,73.07
2017-11-16T21:27:16.466Z,73.34
2017-11-16T21:29:54.797Z,73.44
2017-11-16T21:32:29.042Z,73.46
2017-11-16T21:35:00.935Z,73.61
2017-11-16T21:37:35.079Z,73.55
2017-11-16T21:40:14.538Z,73.45
2017-11-16T21:42:50.009Z,73.22
2017-11-16T21:45:22.911Z,73.13
2017-11-16T21:47:55.246Z,73.07
2017-11-16T21:50:29.497Z,73.06
2017-11-16T21:53:02.768Z,73.05
2017-11-16T21:55:42.950Z,73.07
2017-11-16T21:58:18.779Z,73.05
2017-11-16T22:00:54.101Z,72.69
2017-11-16T22:03:31.014Z,72.73
2017-11-16T22:06:05.369Z,73.01
2017-11-16T22:08:36.985Z,73.36
2017-11-16T22:11:08.664Z,73.49
2017-11-16T22:13:40.070Z,73.35
2017-11-16T22:16:12.184Z,73.35
2017-11-16T22:18:43.561Z,73.55
2017-11-16T22:23:56.889Z,73.13
2017-11-16T22:26:30.486Z,72.92
2017-11-16T22:29:03.005Z,72.71
2017-11-16T22:31:35.199Z,72.59
2017-11-16T22:34:06.985Z,72.48
2017-11-16T22:36:38.468Z,72.52
2017-11-16T22:39:10.172Z,72.65
2017-11-16T22:41:41.934Z,72.63
2017-11-16T22:44:16.576Z,72.75
2017-11-16T22:46:49.569Z,72.87
2017-11-16T22:49:20.920Z,73.01
2017-11-16T22:51:52.820Z,72.70
2017-11-16T22:54:24.288Z,72.95
2017-11-16T22:56:56.646Z,72.98
2017-11-16T22:59:28.615Z,73.20
2017-11-16T23:04:56.719Z,72.88
2017-11-16T23:10:24.272Z,72.78
2017-11-16T23:12:57.587Z,72.85
2017-11-16T23:15:29.413Z,72.80
2017-11-16T23:18:02.958Z,72.74
2017-11-16T23:20:37.386Z,72.54
2017-11-16T23:23:08.746Z,72.43
2017-11-16T23:25:40.531Z,72.41
2017-11-16T23:28:12.289Z,72.38
2017-11-16T23:30:44.856Z,72.27
2017-11-16T23:33:16.629Z,72.44
2017-11-16T23:35:48.241Z,72.53
2017-11-16T23:38:20.113Z,72.60
2017-11-16T23:40:51.861Z,72.86
2017-11-16T23:43:23.455Z,73.30
2017-11-16T23:46:09.219Z,73.26
2017-11-16T23:48:40.616Z,73.43
2017-11-16T23:51:12.010Z,73.68
2017-11-16T23:53:44.526Z,74.18
2017-11-16T23:58:40.594Z,74.82
